createdAt,value
2023-04-14T00:00:34.667Z,4.13
2023-04-14T00:02:56.573Z,3.40
2023-04-14T00:05:10.301Z,3.80
2023-04-14T00:07:15.137Z,3.55
2023-04-14T00:09:44.543Z,4.63
2023-04-14T00:14:24.174Z,3.72
2023-04-14T00:16:30.326Z,3.78
2023-04-14T00:18:34.969Z,4.43
2023-04-14T00:20:48.483Z,4.40
2023-04-14T00:25:18.128Z,3.55
2023-04-14T00:27:28.547Z,3.42
2023-04-14T00:29:45.272Z,4.15
2023-04-14T00:34:18.808Z,5.05
2023-04-14T00:36:20.635Z,4.60
2023-04-14T00:38:22.193Z,4.55
2023-04-14T00:40:30.315Z,5.10
2023-04-14T00:42:32.049Z,4.43
2023-04-14T00:44:48.824Z,4.38
2023-04-14T00:46:50.771Z,3.30
2023-04-14T00:49:23.336Z,3.97
2023-04-14T00:51:40.276Z,3.83
2023-04-14T00:56:25.329Z,3.80
2023-04-14T00:58:30.920Z,3.38
2023-04-14T01:00:33.928Z,3.50
2023-04-14T01:02:50.150Z,3.63
2023-04-14T01:05:28.610Z,3.42
2023-04-14T01:07:31.755Z,3.00
2023-04-14T01:09:42.295Z,3.05
2023-04-14T01:15:00.536Z,3.70
2023-04-14T01:17:27.679Z,2.67
2023-04-14T01:19:53.138Z,3.80
2023-04-14T01:36:52.003Z,3.35
2023-04-14T01:42:01.895Z,4.18
2023-04-14T01:44:43.321Z,3.58
2023-04-14T01:47:16.590Z,3.85
2023-04-14T01:49:22.735Z,3.20
2023-04-14T01:51:46.256Z,3.85
2023-04-14T01:56:18.993Z,3.13
2023-04-14T02:00:47.838Z,2.58
2023-04-14T02:04:26.352Z,2.10
2023-04-14T02:05:38.008Z,2.42
2023-04-14T02:07:42.768Z,2.33
2023-04-14T02:09:49.141Z,2.60
2023-04-14T02:12:00.561Z,2.28
2023-04-14T02:14:20.026Z,2.00
2023-04-14T02:16:29.181Z,2.50
2023-04-14T02:19:13.083Z,2.75
2023-04-14T02:24:03.902Z,2.05
2023-04-14T02:26:30.357Z,2.10
2023-04-14T02:29:17.590Z,2.28
2023-04-14T02:34:20.469Z,2.55
2023-04-14T02:41:33.434Z,1.90
2023-04-14T02:43:49.458Z,1.98
2023-04-14T02:46:17.554Z,2.40
2023-04-14T02:51:18.610Z,2.35
2023-04-14T02:55:47.861Z,2.28
2023-04-14T02:57:55.342Z,2.28
2023-04-14T03:00:09.135Z,2.75
2023-04-14T03:04:55.357Z,2.85
2023-04-14T03:07:34.383Z,2.80
2023-04-14T03:10:31.173Z,2.95
2023-04-14T03:14:48.381Z,3.60
2023-04-14T03:16:58.849Z,4.90
2023-04-14T03:19:16.176Z,4.25
2023-04-14T03:21:41.703Z,4.13
2023-04-14T03:23:54.910Z,4.50
2023-04-14T03:26:03.578Z,5.32
2023-04-14T03:28:36.278Z,5.85
2023-04-14T03:30:47.483Z,6.18
2023-04-14T03:32:53.489Z,5.18
2023-04-14T03:35:28.820Z,4.90
2023-04-14T03:46:12.554Z,5.75
2023-04-14T03:48:52.870Z,5.32
2023-04-14T03:51:35.607Z,5.22
2023-04-14T03:54:21.343Z,4.30
2023-04-14T04:00:15.986Z,4.85
2023-04-14T04:02:12.378Z,4.60
2023-04-14T04:04:50.144Z,4.90
2023-04-14T04:12:55.723Z,4.43
2023-04-14T04:14:57.332Z,5.20
2023-04-14T04:20:50.687Z,6.18
2023-04-14T04:23:17.661Z,6.85
2023-04-14T04:25:33.389Z,6.35
2023-04-14T04:27:54.948Z,5.80
2023-04-14T04:30:38.087Z,6.47
2023-04-14T04:32:39.770Z,7.35
2023-04-14T04:37:27.580Z,6.63
2023-04-14T04:40:09.599Z,6.70
2023-04-14T04:44:42.281Z,5.55
2023-04-14T04:47:08.741Z,5.45
2023-04-14T04:49:30.045Z,5.00
2023-04-14T04:51:43.765Z,5.15
2023-04-14T04:53:48.305Z,4.97
2023-04-14T04:55:56.026Z,5.28
2023-04-14T04:58:01.820Z,5.43
2023-04-14T05:00:24.416Z,6.07
2023-04-14T05:02:40.935Z,5.25
2023-04-14T05:05:00.542Z,5.72
2023-04-14T05:07:05.145Z,5.47
2023-04-14T05:09:40.941Z,6.30
2023-04-14T05:11:42.527Z,6.30
2023-04-14T05:13:47.390Z,7.65
2023-04-14T05:16:03.500Z,6.47
2023-04-14T05:18:08.102Z,6.07
2023-04-14T05:20:12.954Z,5.80
2023-04-14T05:22:18.614Z,5.13
2023-04-14T05:24:23.463Z,4.53
2023-04-14T05:27:01.837Z,4.55
2023-04-14T05:29:07.827Z,5.93
2023-04-14T05:31:41.238Z,5.70
2023-04-14T05:33:45.783Z,5.32
2023-04-14T05:35:50.627Z,6.28
2023-04-14T05:38:14.081Z,5.57
2023-04-14T05:40:55.873Z,4.70
2023-04-14T05:42:57.536Z,5.63
2023-04-14T05:45:14.825Z,4.60
2023-04-14T05:47:20.890Z,5.40
2023-04-14T05:49:35.421Z,5.05
2023-04-14T05:53:52.478Z,5.38
2023-04-14T05:55:57.218Z,5.15
2023-04-14T06:00:37.202Z,6.60
2023-04-14T06:02:49.666Z,5.75
2023-04-14T06:07:36.927Z,5.32
2023-04-14T06:09:46.467Z,6.53
2023-04-14T06:12:09.299Z,5.95
2023-04-14T06:14:19.551Z,5.90
2023-04-14T06:16:26.281Z,6.40
2023-04-14T06:21:24.265Z,7.20
2023-04-14T06:23:47.677Z,5.93
2023-04-14T06:25:49.228Z,7.30
2023-04-14T06:28:39.726Z,6.80
2023-04-14T06:30:45.246Z,6.78
2023-04-14T06:33:30.948Z,7.40
2023-04-14T06:36:04.049Z,7.07
2023-04-14T06:38:05.873Z,7.10
2023-04-14T06:40:09.030Z,7.22
2023-04-14T06:42:13.480Z,7.97
2023-04-14T06:44:33.749Z,7.55
2023-04-14T06:46:36.779Z,8.50
2023-04-14T06:48:45.927Z,8.25
2023-04-14T06:53:39.464Z,6.97
2023-04-14T06:56:00.292Z,6.22
2023-04-14T06:58:18.565Z,7.07
2023-04-14T07:00:23.529Z,7.40
2023-04-14T07:02:34.020Z,6.65
2023-04-14T07:04:55.463Z,6.90
2023-04-14T07:07:45.598Z,6.88
2023-04-14T07:09:54.439Z,7.20
2023-04-14T07:12:26.504Z,7.38
2023-04-14T07:14:31.856Z,5.57
2023-04-14T07:18:48.903Z,6.95
2023-04-14T07:21:21.338Z,7.60
2023-04-14T07:23:47.131Z,7.00
2023-04-14T07:26:01.891Z,8.38
2023-04-14T07:28:06.321Z,7.93
2023-04-14T07:30:08.738Z,6.80
2023-04-14T07:32:16.842Z,6.57
2023-04-14T07:34:27.400Z,8.25
2023-04-14T07:36:31.358Z,8.07
2023-04-14T07:41:03.892Z,7.15
2023-04-14T07:43:14.689Z,7.70
2023-04-14T07:45:16.391Z,8.25
2023-04-14T07:47:26.854Z,8.77
2023-04-14T07:49:28.516Z,8.30
2023-04-14T07:51:32.865Z,8.60
2023-04-14T07:53:34.931Z,8.10
2023-04-14T07:55:51.905Z,7.97
2023-04-14T07:58:03.870Z,7.50
2023-04-14T08:01:02.333Z,7.60
2023-04-14T08:03:09.422Z,7.80
2023-04-14T08:05:14.288Z,7.22
2023-04-14T08:07:21.749Z,8.70
2023-04-14T08:09:23.347Z,7.72
2023-04-14T08:11:27.944Z,7.85
2023-04-14T08:13:30.908Z,8.80
2023-04-14T08:15:45.961Z,10.00
2023-04-14T08:17:51.028Z,10.23
2023-04-14T08:20:11.396Z,8.67
2023-04-14T08:22:12.971Z,9.15
2023-04-14T08:24:37.676Z,11.20
2023-04-14T08:26:58.009Z,8.43
2023-04-14T08:29:03.123Z,8.80
2023-04-14T08:31:28.843Z,7.70
2023-04-14T08:34:00.444Z,7.87
2023-04-14T08:36:05.529Z,7.90
2023-04-14T08:38:18.427Z,7.93
2023-04-14T08:40:48.402Z,8.60
2023-04-14T08:42:59.051Z,8.10
2023-04-14T08:45:06.810Z,9.13
2023-04-14T08:47:17.118Z,6.93
2023-04-14T08:50:05.499Z,8.23
2023-04-14T08:52:53.211Z,8.25
2023-04-14T08:55:19.154Z,7.30
2023-04-14T08:57:27.437Z,7.37
2023-04-14T08:59:29.595Z,7.80
2023-04-14T09:02:13.330Z,6.63
2023-04-14T09:04:25.815Z,7.40
2023-04-14T09:06:35.676Z,6.70
2023-04-14T09:08:40.893Z,7.45
2023-04-14T09:10:54.242Z,7.60
2023-04-14T09:13:08.407Z,8.30
2023-04-14T09:15:18.919Z,8.43
2023-04-14T09:17:23.741Z,7.10
2023-04-14T09:20:36.793Z,8.20
2023-04-14T09:22:01.786Z,7.80
2023-04-14T09:24:16.924Z,8.35
2023-04-14T09:26:21.241Z,7.00
2023-04-14T09:28:44.427Z,7.93
2023-04-14T09:30:53.223Z,7.53
2023-04-14T09:33:07.733Z,8.23
2023-04-14T09:35:10.951Z,6.63
2023-04-14T09:37:24.757Z,7.00
2023-04-14T09:39:32.964Z,6.65
2023-04-14T09:41:47.649Z,6.87
2023-04-14T09:44:15.189Z,7.40
2023-04-14T09:48:56.991Z,6.83
2023-04-14T09:51:30.341Z,7.00
2023-04-14T09:53:33.209Z,6.57
2023-04-14T09:56:56.860Z,7.20
2023-04-14T09:59:17.076Z,7.77
2023-04-14T10:01:19.814Z,7.80
2023-04-14T10:03:34.226Z,7.10
2023-04-14T10:05:36.000Z,9.30
2023-04-14T10:07:42.132Z,8.03
2023-04-14T10:09:48.153Z,7.80
2023-04-14T10:12:09.482Z,7.90
2023-04-14T10:14:11.355Z,7.17
2023-04-14T10:16:13.631Z,7.30
2023-04-14T10:18:15.391Z,6.90
2023-04-14T10:20:17.643Z,7.50
2023-04-14T10:22:20.808Z,7.63
2023-04-14T10:24:24.305Z,6.97
2023-04-14T10:26:26.829Z,7.40
2023-04-14T10:28:30.920Z,6.63
2023-04-14T10:30:33.970Z,7.33
2023-04-14T10:32:37.672Z,6.97
2023-04-14T10:34:53.285Z,7.67
2023-04-14T10:36:54.915Z,7.37
2023-04-14T10:39:00.754Z,7.93
2023-04-14T10:41:05.476Z,7.97
2023-04-14T10:43:12.131Z,7.17
2023-04-14T10:45:13.758Z,7.57
2023-04-14T10:47:23.297Z,6.33
2023-04-14T10:49:29.807Z,5.77
2023-04-14T10:51:34.669Z,5.00
2023-04-14T10:53:38.646Z,5.30
2023-04-14T10:55:51.690Z,4.73
2023-04-14T10:58:04.049Z,3.23
2023-04-14T11:00:22.596Z,5.00
2023-04-14T11:02:25.830Z,5.60
2023-04-14T11:04:27.606Z,4.73
2023-04-14T11:06:50.949Z,5.40
2023-04-14T11:08:54.752Z,4.60
2023-04-14T11:11:00.822Z,4.87
2023-04-14T11:13:05.638Z,6.60
2023-04-14T11:15:07.957Z,6.40
2023-04-14T11:17:19.780Z,5.30
2023-04-14T11:19:21.530Z,5.13
2023-04-14T11:21:23.140Z,6.27
2023-04-14T11:23:28.417Z,5.37
2023-04-14T11:25:30.241Z,5.60
2023-04-14T11:27:32.591Z,6.43
2023-04-14T11:29:35.530Z,5.70
2023-04-14T11:31:37.144Z,5.60
2023-04-14T11:33:40.276Z,6.30
2023-04-14T11:35:42.217Z,7.90
2023-04-14T11:37:44.507Z,5.70
2023-04-14T11:39:46.466Z,6.20
2023-04-14T11:41:49.792Z,6.53
2023-04-14T11:43:51.473Z,6.63
2023-04-14T11:45:54.548Z,5.40
2023-04-14T11:47:57.378Z,5.73
2023-04-14T11:50:02.093Z,6.90
2023-04-14T11:52:07.360Z,7.73
2023-04-14T11:54:11.958Z,6.03
2023-04-14T11:56:13.670Z,4.77
2023-04-14T11:58:21.257Z,5.33
2023-04-14T12:00:23.339Z,4.73
2023-04-14T12:02:26.454Z,4.63
2023-04-14T12:04:30.951Z,5.97
2023-04-14T12:06:36.195Z,5.40
2023-04-14T12:08:37.862Z,4.50
2023-04-14T12:10:40.661Z,6.00
2023-04-14T12:12:42.206Z,6.30
2023-04-14T12:14:45.767Z,6.43
2023-04-14T12:16:47.722Z,6.40
2023-04-14T12:18:50.625Z,7.20
2023-04-14T12:20:53.921Z,4.80
2023-04-14T12:23:01.547Z,4.77
2023-04-14T12:25:11.008Z,5.30
2023-04-14T12:27:12.835Z,4.80
2023-04-14T12:29:14.407Z,5.27
2023-04-14T12:31:27.244Z,5.70
2023-04-14T12:33:30.568Z,5.20
2023-04-14T12:35:35.159Z,4.90
2023-04-14T12:37:36.749Z,4.73
2023-04-14T12:39:50.949Z,4.63
2023-04-14T12:41:52.721Z,4.93
2023-04-14T12:43:54.265Z,4.40
2023-04-14T12:45:55.944Z,4.97
2023-04-14T12:47:57.585Z,4.37
2023-04-14T12:50:00.868Z,4.33
2023-04-14T12:52:04.345Z,4.37
2023-04-14T12:54:07.003Z,3.27
2023-04-14T12:56:10.346Z,3.00
2023-04-14T12:58:11.893Z,3.00
2023-04-14T13:00:14.381Z,2.83
2023-04-14T13:02:18.884Z,4.23
2023-04-14T13:04:20.844Z,3.40
2023-04-14T13:06:24.183Z,4.00
2023-04-14T13:08:27.208Z,3.50
2023-04-14T13:10:28.793Z,3.80
2023-04-14T13:12:30.695Z,4.03
2023-04-14T13:14:32.277Z,3.90
2023-04-14T13:16:33.964Z,5.00
2023-04-14T13:18:35.720Z,3.53
2023-04-14T13:20:37.838Z,4.50
2023-04-14T13:22:39.438Z,3.70
2023-04-14T13:24:42.429Z,4.00
2023-04-14T13:26:43.966Z,3.30
2023-04-14T13:28:45.578Z,3.47
2023-04-14T13:30:48.143Z,3.90
2023-04-14T13:32:49.882Z,3.90
2023-04-14T13:34:52.538Z,3.13
2023-04-14T13:36:54.452Z,3.43
2023-04-14T13:38:56.378Z,4.60
2023-04-14T13:40:59.454Z,3.70
2023-04-14T13:43:01.086Z,3.37
2023-04-14T13:45:02.665Z,4.17
2023-04-14T13:47:04.218Z,3.67
2023-04-14T13:49:05.939Z,3.10
2023-04-14T13:51:07.520Z,3.13
2023-04-14T13:53:09.306Z,3.70
2023-04-14T13:55:11.033Z,3.27
2023-04-14T13:57:14.027Z,3.67
2023-04-14T13:59:15.614Z,2.73
2023-04-14T14:01:17.259Z,3.60
2023-04-14T14:03:19.050Z,3.30
2023-04-14T14:05:20.769Z,2.63
2023-04-14T14:07:22.280Z,3.87
2023-04-14T14:09:23.782Z,2.77
2023-04-14T14:11:25.381Z,2.63
2023-04-14T14:13:28.254Z,2.60
2023-04-14T14:15:29.861Z,2.20
2023-04-14T14:17:31.684Z,2.57
2023-04-14T14:19:33.259Z,2.13
2023-04-14T14:21:34.874Z,2.23
2023-04-14T14:23:36.492Z,1.97
2023-04-14T14:25:38.081Z,2.23
2023-04-14T14:27:39.639Z,2.27
2023-04-14T14:29:42.552Z,2.00
2023-04-14T14:31:44.126Z,2.30
2023-04-14T14:33:45.712Z,1.90
2023-04-14T14:35:47.368Z,3.43
2023-04-14T14:37:49.353Z,2.47
2023-04-14T14:39:50.948Z,2.27
2023-04-14T14:41:52.583Z,2.40
2023-04-14T14:43:54.136Z,2.47
2023-04-14T14:45:57.034Z,2.50
2023-04-14T14:47:59.175Z,2.40
2023-04-14T14:50:02.360Z,2.67
2023-04-14T14:52:05.878Z,2.80
2023-04-14T14:54:10.308Z,2.60
2023-04-14T14:56:12.125Z,2.20
2023-04-14T14:58:13.637Z,2.33
2023-04-14T15:00:15.719Z,2.60
2023-04-14T15:02:18.929Z,2.60
2023-04-14T15:04:20.752Z,2.00
2023-04-14T15:06:22.586Z,2.03
2023-04-14T15:08:24.169Z,2.10
2023-04-14T15:10:25.739Z,2.53
2023-04-14T15:12:27.404Z,2.13
2023-04-14T15:14:28.946Z,2.40
2023-04-14T15:16:30.594Z,3.40
2023-04-14T15:18:33.591Z,3.43
2023-04-14T15:20:35.165Z,2.40
2023-04-14T15:22:36.853Z,2.57
2023-04-14T15:24:38.630Z,3.50
2023-04-14T15:26:40.229Z,2.50
2023-04-14T15:28:41.816Z,2.43
2023-04-14T15:30:43.443Z,2.80
2023-04-14T15:32:45.106Z,2.30
2023-04-14T15:34:48.052Z,2.77
2023-04-14T15:36:49.686Z,2.37
2023-04-14T15:38:51.509Z,3.00
2023-04-14T15:40:53.730Z,2.67
2023-04-14T15:42:55.333Z,2.70
2023-04-14T15:44:56.907Z,2.93
2023-04-14T15:46:58.472Z,2.97
2023-04-14T15:49:00.059Z,3.10
2023-04-14T15:51:03.081Z,2.80
2023-04-14T15:53:07.272Z,2.90
2023-04-14T15:55:10.396Z,3.33
2023-04-14T15:57:12.460Z,2.77
2023-04-14T15:59:14.136Z,2.80
2023-04-14T16:01:15.850Z,4.00
2023-04-14T16:03:17.869Z,3.33
2023-04-14T16:05:19.574Z,3.13
2023-04-14T16:07:22.552Z,2.83
2023-04-14T16:09:24.454Z,3.57
2023-04-14T16:11:26.040Z,3.40
2023-04-14T16:13:27.720Z,3.83
2023-04-14T16:15:29.342Z,5.50
2023-04-14T16:17:30.882Z,10.90
2023-04-14T16:19:32.630Z,4.17
2023-04-14T16:21:34.241Z,3.30
2023-04-14T16:23:37.315Z,3.50
2023-04-14T16:25:39.093Z,3.07
2023-04-14T16:27:40.619Z,4.13
2023-04-14T16:29:42.438Z,4.87
2023-04-14T16:31:44.063Z,6.20
2023-04-14T16:33:48.574Z,6.10
2023-04-14T16:35:50.146Z,4.93
2023-04-14T16:37:51.733Z,5.00
2023-04-14T16:39:55.266Z,4.40
2023-04-14T16:41:56.885Z,4.10
2023-04-14T16:43:58.524Z,4.57
2023-04-14T16:46:04.172Z,6.00
2023-04-14T16:48:05.897Z,5.53
2023-04-14T16:50:08.199Z,4.80
2023-04-14T16:52:09.789Z,4.70
2023-04-14T16:54:11.477Z,4.20
2023-04-14T16:56:14.460Z,3.77
2023-04-14T16:58:16.026Z,3.43
2023-04-14T17:00:18.042Z,3.30
2023-04-14T17:02:19.699Z,3.03
2023-04-14T17:04:21.620Z,3.67
2023-04-14T17:06:23.554Z,3.77
2023-04-14T17:08:25.221Z,3.83
2023-04-14T17:10:26.980Z,4.10
2023-04-14T17:12:30.107Z,3.97
2023-04-14T17:14:31.681Z,4.70
2023-04-14T17:16:33.347Z,5.47
2023-04-14T17:18:35.188Z,5.20
2023-04-14T17:20:39.165Z,5.40
2023-04-14T17:22:40.885Z,42.43
2023-04-14T17:24:42.892Z,11.53
2023-04-14T17:26:44.698Z,8.80
2023-04-14T17:28:47.574Z,6.70
2023-04-14T17:30:49.281Z,6.30
2023-04-14T17:32:50.922Z,7.67
2023-04-14T17:34:52.618Z,5.70
2023-04-14T17:36:54.374Z,6.00
2023-04-14T17:38:56.384Z,5.73
2023-04-14T17:40:57.934Z,7.90
2023-04-14T17:42:59.475Z,9.77
2023-04-14T17:45:06.656Z,8.10
2023-04-14T17:47:08.311Z,7.97
2023-04-14T17:49:10.057Z,8.40
2023-04-14T17:51:11.740Z,7.37
2023-04-14T17:53:13.747Z,7.20
2023-04-14T17:55:15.620Z,8.10
2023-04-14T17:57:17.468Z,8.07
2023-04-14T17:59:20.142Z,11.70
2023-04-14T18:01:23.537Z,8.63
2023-04-14T18:03:25.402Z,6.97
2023-04-14T18:05:27.004Z,7.50
2023-04-14T18:07:28.528Z,7.50
2023-04-14T18:09:30.172Z,7.30
2023-04-14T18:11:31.773Z,8.00
2023-04-14T18:13:33.327Z,8.20
2023-04-14T18:15:35.006Z,8.00
2023-04-14T18:17:38.066Z,9.87
2023-04-14T18:19:39.683Z,9.93
2023-04-14T18:21:43.221Z,13.03
2023-04-14T18:24:47.920Z,40.47
2023-04-14T18:28:12.952Z,20.37
2023-04-14T18:30:14.533Z,21.07
2023-04-14T18:32:16.147Z,19.27
2023-04-14T18:34:19.154Z,17.73
2023-04-14T18:36:20.746Z,16.70
2023-04-14T18:38:22.736Z,17.90
2023-04-14T18:40:25.894Z,12.87
2023-04-14T18:42:29.153Z,9.47
2023-04-14T18:44:30.685Z,9.90
2023-04-14T18:46:32.300Z,8.93
2023-04-14T18:48:33.946Z,14.90
2023-04-14T18:50:36.825Z,13.17
2023-04-14T18:52:38.466Z,11.80
2023-04-14T18:54:40.034Z,11.33
2023-04-14T18:56:43.148Z,8.93
2023-04-14T18:58:44.784Z,8.17
2023-04-14T19:00:46.462Z,8.30
2023-04-14T19:02:48.245Z,9.30
2023-04-14T19:04:50.213Z,7.90
2023-04-14T19:06:53.261Z,7.00
2023-04-14T19:08:54.962Z,8.20
2023-04-14T19:10:57.995Z,7.50
2023-04-14T19:12:59.895Z,7.80
2023-04-14T19:15:01.413Z,7.50
2023-04-14T19:17:03.041Z,7.53
2023-04-14T19:19:04.850Z,6.33
2023-04-14T19:21:06.803Z,7.30
2023-04-14T19:23:09.713Z,8.20
2023-04-14T19:25:11.262Z,9.07
2023-04-14T19:27:13.281Z,11.30
2023-04-14T19:29:14.912Z,8.43
2023-04-14T19:31:16.559Z,7.70
2023-04-14T19:33:18.219Z,6.47
2023-04-14T19:35:19.985Z,5.67
2023-04-14T19:37:21.905Z,5.90
2023-04-14T19:39:24.886Z,4.90
2023-04-14T19:41:26.586Z,5.27
2023-04-14T19:43:28.231Z,4.00
2023-04-14T19:45:29.863Z,4.80
2023-04-14T19:47:31.575Z,5.23
2023-04-14T19:49:33.508Z,4.50
2023-04-14T19:51:35.059Z,5.10
2023-04-14T19:53:37.282Z,4.77
2023-04-14T19:55:40.323Z,4.70
2023-04-14T19:57:41.917Z,6.10
2023-04-14T19:59:46.054Z,4.87
2023-04-14T20:01:47.809Z,4.70
2023-04-14T20:04:07.082Z,4.97
2023-04-14T20:06:11.215Z,5.23
2023-04-14T20:08:12.965Z,3.73
2023-04-14T20:10:14.506Z,4.50
2023-04-14T20:12:17.801Z,3.63
2023-04-14T20:14:19.365Z,4.20
2023-04-14T20:16:21.237Z,4.40
2023-04-14T20:18:23.141Z,4.13
2023-04-14T20:20:24.986Z,4.40
2023-04-14T20:22:26.571Z,3.83
2023-04-14T20:24:28.158Z,4.30
2023-04-14T20:26:29.756Z,4.33
2023-04-14T20:28:32.981Z,4.47
2023-04-14T20:30:34.741Z,4.77
2023-04-14T20:32:36.494Z,4.63
2023-04-14T20:34:38.038Z,4.77
2023-04-14T20:36:39.625Z,4.57
2023-04-14T20:38:41.332Z,4.00
2023-04-14T20:40:43.018Z,5.40
2023-04-14T20:42:45.011Z,4.00
2023-04-14T20:44:47.942Z,4.70
2023-04-14T20:46:50.071Z,4.43
2023-04-14T20:48:51.756Z,4.30
2023-04-14T20:50:53.442Z,4.72
2023-04-14T20:52:55.474Z,4.10
2023-04-14T20:54:57.264Z,3.60
2023-04-14T20:56:58.798Z,4.30
2023-04-14T20:59:00.542Z,5.37
2023-04-14T21:01:03.760Z,4.27
2023-04-14T21:03:05.880Z,6.40
2023-04-14T21:05:08.078Z,5.97
2023-04-14T21:07:09.743Z,5.40
2023-04-14T21:09:11.542Z,7.90
2023-04-14T21:11:16.918Z,4.50
2023-04-14T21:15:24.685Z,4.60
2023-04-14T21:15:56.184Z,4.70
2023-04-14T21:18:00.224Z,4.30
2023-04-14T21:20:01.923Z,4.37
2023-04-14T21:22:09.282Z,4.72
2023-04-14T21:24:22.371Z,3.93
2023-04-14T21:26:24.242Z,3.73
2023-04-14T21:28:25.838Z,3.90
2023-04-14T21:30:27.695Z,4.30
2023-04-14T21:32:29.407Z,3.57
2023-04-14T21:34:32.579Z,3.50
2023-04-14T21:36:34.194Z,3.80
2023-04-14T21:38:37.165Z,4.20
2023-04-14T21:40:38.893Z,4.07
2023-04-14T21:42:40.484Z,4.30
2023-04-14T21:44:42.118Z,4.23
2023-04-14T21:46:43.984Z,4.07
2023-04-14T21:48:51.770Z,4.30
2023-04-14T21:50:54.890Z,4.80
2023-04-14T21:52:56.497Z,3.70
2023-04-14T21:54:58.179Z,4.73
2023-04-14T21:56:59.843Z,4.57
2023-04-14T21:59:01.655Z,4.53
2023-04-14T22:01:03.964Z,5.27
2023-04-14T22:03:05.724Z,5.77
2023-04-14T22:05:07.965Z,6.57
2023-04-14T22:07:10.953Z,5.60
2023-04-14T22:09:12.664Z,5.90
2023-04-14T22:11:14.375Z,6.60
2023-04-14T22:13:15.974Z,6.43
2023-04-14T22:15:20.549Z,5.70
2023-04-14T22:17:22.171Z,4.88
2023-04-14T22:19:23.784Z,5.57
2023-04-14T22:21:25.463Z,5.10
2023-04-14T22:23:28.762Z,5.40
2023-04-14T22:25:30.530Z,5.67
2023-04-14T22:27:32.566Z,5.67
2023-04-14T22:29:34.205Z,4.77
2023-04-14T22:31:35.814Z,4.47
2023-04-14T22:33:37.515Z,5.20
2023-04-14T22:35:39.277Z,5.30
2023-04-14T22:37:41.031Z,4.50
2023-04-14T22:39:44.070Z,6.40
2023-04-14T22:41:45.896Z,5.43
2023-04-14T22:43:47.497Z,5.30
2023-04-14T22:45:49.172Z,4.97
2023-04-14T22:47:59.653Z,5.05
2023-04-14T22:50:01.846Z,4.77
2023-04-14T22:52:03.583Z,5.10
2023-04-14T22:54:05.180Z,4.60
2023-04-14T22:56:08.279Z,4.82
2023-04-14T22:58:09.941Z,5.15
2023-04-14T23:00:14.654Z,5.57
2023-04-14T23:02:16.667Z,5.78
2023-04-14T23:04:18.506Z,6.07
2023-04-14T23:06:20.632Z,7.45
2023-04-14T23:08:22.225Z,5.97
2023-04-14T23:10:24.038Z,6.87
2023-04-14T23:12:27.075Z,6.40
2023-04-14T23:14:28.682Z,6.00
2023-04-14T23:16:31.137Z,6.60
2023-04-14T23:18:32.777Z,5.70
2023-04-14T23:20:34.398Z,6.60
2023-04-14T23:22:36.076Z,6.68
2023-04-14T23:24:37.716Z,6.10
2023-04-14T23:26:39.410Z,6.13
2023-04-14T23:28:42.354Z,7.05
2023-04-14T23:30:43.981Z,7.40
2023-04-14T23:32:45.805Z,6.27
2023-04-14T23:34:47.400Z,6.63
2023-04-14T23:36:48.985Z,5.83
2023-04-14T23:38:50.592Z,5.32
2023-04-14T23:40:52.284Z,6.40
2023-04-14T23:42:53.944Z,10.50
2023-04-14T23:44:57.067Z,10.00
2023-04-14T23:46:58.872Z,12.82
2023-04-14T23:49:03.092Z,6.63
2023-04-14T23:51:22.196Z,6.00
2023-04-14T23:53:24.798Z,6.17
2023-04-14T23:55:26.531Z,6.80
2023-04-14T23:57:30.903Z,6.33
2023-04-14T23:59:32.521Z,6.38
